Latest Weather Observations for Lockhart River

IDQ60801

Issued at 4:32 pm EST Thursday 5 March 2015 (issued every 30 minutes, with the page automatically refreshed every 10 minutes)

About weather observations | Map of weather stations | Latest weather observations for QLD | Other Formats
Station Details ID: 028008 Name: LOCKHART RIVER AIRPORT Lat: -12.79 Lon: 143.30 Height: 18.5 m
Data from the previous 72 hours. | See also: Recent months at Lockhart River
Date/Time
EST
Temp
°C
App
Temp
°C
Dew
Point
Rel
Hum
%
Delta-T
°C
Wind Press
QNH
hPa
Press
MSL
hPa
Rain
since 9 am
mm
Dir
 
Spd
km/h
Gust
km/h
Spd
kts
Gust
kts
05/04:30pm 27.8 31.9 24.6 83 2.2 ENE 11 17 6 9 1005.6 - 4.6
05/04:00pm 27.3 32.1 25.1 88 1.5 ENE 9 13 5 7 1005.8 - 4.6
05/03:30pm 28.4 32.9 24.6 80 2.6 ENE 9 17 5 9 1006.0 - 4.4
05/03:00pm 27.6 28.9 24.0 81 2.5 NE 24 32 13 17 1006.0 1005.9 4.4
05/02:30pm 29.4 32.4 24.7 76 3.3 E 17 24 9 13 1006.2 - 4.4
05/02:00pm 29.4 32.7 24.5 75 3.4 E 15 28 8 15 1006.6 - 4.4
05/01:30pm 28.9 31.3 24.2 76 3.3 E 19 26 10 14 1007.1 - 4.4
05/01:00pm 29.2 32.8 25.6 81 2.5 E 17 22 9 12 1007.7 - 4.4
05/12:30pm 28.2 32.2 25.0 83 2.2 ENE 13 17 7 9 1008.2 - 4.4
05/12:00pm 28.1 33.7 25.5 86 1.8 NNW 6 11 3 6 1008.6 1008.5 4.4
05/11:30am 26.7 31.7 24.5 88 1.5 NW 6 7 3 4 1009.2 - 4.4
05/11:00am 25.6 31.1 24.7 95 0.6 NE 4 11 2 6 1009.5 - 4.4
05/10:30am 28.4 32.9 24.6 80 2.6 E 9 15 5 8 1009.4 - 0.0
05/10:00am 28.2 34.0 24.0 78 2.9 CALM 0 2 0 1 1009.4 - 0.0
05/09:30am 27.9 31.7 24.1 80 2.6 SSE 11 13 6 7 1009.6 - 0.0
05/09:00am 27.0 32.1 24.1 84 2.0 W 4 11 2 6 1009.8 1009.7 12.2
05/08:30am 26.2 31.4 24.8 92 1.0 WNW 6 7 3 4 1009.4 - 12.2
05/08:00am 25.5 31.3 23.9 91 1.1 CALM 0 6 0 3 1009.2 - 12.2
05/07:30am 24.6 30.4 23.9 96 0.5 CALM 0 4 0 2 1009.1 - 12.2
05/07:00am 24.3 29.0 24.0 98 0.2 W 6 11 3 6 1008.8 - 12.2
05/06:30am 24.1 28.7 23.8 98 0.2 NW 6 9 3 5 1008.4 - 12.2
05/06:00am 24.4 29.5 24.1 98 0.2 N 4 7 2 4 1007.9 1007.8 12.2
05/05:30am 24.3 28.8 24.0 98 0.2 NNW 7 11 4 6 1007.6 - 12.2
05/05:00am 24.2 30.0 23.9 98 0.2 CALM 0 0 0 0 1007.5 - 11.2
05/04:30am 24.1 28.7 23.8 98 0.2 WNW 6 6 3 3 1007.2 - 11.2
05/04:00am 24.2 29.9 23.7 97 0.3 CALM 0 7 0 4 1007.0 - 11.2
05/03:30am 24.5 29.0 24.0 97 0.3 NNW 7 9 4 5 1007.2 - 11.2
05/03:00am 24.7 30.7 24.2 97 0.3 CALM 0 0 0 0 1007.7 1007.6 10.8
05/02:30am 24.9 30.4 24.6 98 0.2 WNW 4 7 2 4 1008.0 - 10.8
05/02:00am 25.1 30.1 24.8 98 0.2 W 7 7 4 4 1008.1 - 10.8
05/01:30am 25.1 30.1 24.8 98 0.2 NNE 7 11 4 6 1008.9 - 10.4
05/01:00am 25.2 31.6 24.9 98 0.2 CALM 0 0 0 0 1008.8 - 6.0
05/12:30am 25.4 31.0 24.9 97 0.3 WNW 4 6 2 3 1009.2 - 6.0
05/12:02am 25.6 32.0 24.9 96 0.5 CALM 0 6 0 3 1009.4 - 5.8
05/12:00am 25.6 31.6 24.9 96 0.5 SE 2 11 1 6 1009.4 1009.3 5.8
 
Date/Time
EST
Temp
°C
App
Temp
°C
Dew
Point
Rel
Hum
%
Delta-T
°C
Wind Press
QNH
hPa
Press
MSL
hPa
Rain
since 9 am
mm
Dir
 
Spd
km/h
Gust
km/h
Spd
kts
Gust
kts
04/11:45pm 25.5 31.6 25.0 97 0.3 N 2 11 1 6 1009.6 - 5.4
04/11:30pm 25.7 32.3 25.2 97 0.3 CALM 0 0 0 0 1009.7 - 2.6
04/11:00pm 25.4 31.8 24.9 97 0.3 CALM 0 0 0 0 1009.8 - 1.8
04/10:30pm 25.4 31.4 24.9 97 0.3 NW 2 7 1 4 1009.8 - 1.8
04/10:00pm 25.4 31.8 24.9 97 0.3 CALM 0 0 0 0 1009.3 - 1.8
04/09:30pm 25.6 32.0 24.9 96 0.5 CALM 0 0 0 0 1009.2 - 1.8
04/09:00pm 25.7 32.2 25.0 96 0.5 CALM 0 0 0 0 1008.8 1008.7 1.8
04/08:30pm 25.6 30.5 24.7 95 0.6 WNW 7 9 4 5 1008.4 - 1.8
04/08:00pm 26.2 32.7 25.0 93 0.8 CALM 0 0 0 0 1008.1 - 1.8
04/07:30pm 26.2 32.7 25.0 93 0.8 CALM 0 0 0 0 1007.7 - 1.8
04/07:00pm 26.4 29.3 23.9 86 1.7 E 15 20 8 11 1007.3 - 1.6
04/06:30pm 27.8 31.8 24.4 82 2.4 ENE 11 17 6 9 1006.6 - 0.2
04/06:00pm 28.1 32.2 24.5 81 2.5 ENE 11 17 6 9 1006.4 1006.3 0.2
04/05:30pm 28.8 32.0 23.7 74 3.5 E 13 20 7 11 1006.2 - 0.2
04/05:00pm 28.8 32.1 23.2 71 3.8 E 11 20 6 11 1006.3 - 0.2
04/04:30pm 29.0 31.9 23.9 74 3.5 E 15 24 8 13 1006.2 - 0.2
04/04:00pm 30.1 32.0 23.5 67 4.6 E 19 26 10 14 1006.2 - 0.2
04/03:30pm 30.2 32.4 23.9 69 4.4 ENE 19 26 10 14 1006.3 - 0.2
04/03:00pm 30.5 33.7 24.9 72 3.9 E 17 30 9 16 1006.5 1006.4 0.2
04/02:30pm 29.4 31.0 23.3 69 4.2 ESE 20 28 11 15 1006.9 - 0.2
04/02:00pm 30.8 33.0 24.2 68 4.6 E 20 28 11 15 1007.2 - 0.2
04/01:30pm 30.8 33.2 23.7 66 4.9 E 17 24 9 13 1007.6 - 0.2
04/01:00pm 30.6 32.2 23.3 65 5.0 E 20 30 11 16 1007.9 - 0.2
04/12:30pm 30.6 32.1 22.7 62 5.4 E 19 26 10 14 1008.4 - 0.2
04/12:00pm 30.7 33.1 23.6 66 4.9 ENE 17 24 9 13 1008.6 1008.5 0.2
04/11:30am 30.4 32.3 22.8 64 5.2 E 17 26 9 14 1009.0 - 0.2
04/11:00am 30.4 33.5 24.1 69 4.4 E 15 26 8 14 1009.3 - 0.2
04/10:30am 30.0 33.2 23.7 69 4.4 E 13 22 7 12 1009.4 - 0.2
04/10:00am 28.4 34.4 24.8 81 2.5 WNW 2 7 1 4 1009.7 - 0.0
04/09:30am 27.7 31.8 24.5 83 2.2 NW 11 13 6 7 1009.5 - 0.0
04/09:00am 27.3 31.8 23.7 81 2.5 NW 6 9 3 5 1009.5 1009.4 1.0
04/08:30am 26.7 31.2 24.0 85 1.9 W 7 9 4 5 1009.3 - 1.0
04/08:00am 24.9 30.0 24.6 98 0.2 NE 6 11 3 6 1009.0 - 1.0
04/07:30am 23.6 27.9 23.3 98 0.2 NW 6 7 3 4 1008.6 - 1.0
04/07:00am 23.3 28.6 23.0 98 0.2 CALM 0 0 0 0 1008.3 - 1.0
04/06:30am 23.2 28.4 22.9 98 0.2 CALM 0 0 0 0 1008.1 - 0.0
04/06:00am 23.2 28.4 22.9 98 0.2 CALM 0 4 0 2 1008.0 1007.9 0.0
04/05:30am 23.4 27.5 22.9 97 0.3 NW 6 7 3 4 1007.8 - 0.0
04/05:00am 23.4 27.5 22.9 97 0.3 WNW 6 7 3 4 1007.5 - 0.0
04/04:30am 23.6 28.2 23.1 97 0.3 NW 4 7 2 4 1007.3 - 0.0
04/04:00am 23.8 29.2 23.3 97 0.3 CALM 0 0 0 0 1007.3 - 0.0
04/03:30am 24.4 30.1 23.7 96 0.5 CALM 0 0 0 0 1007.5 - 0.0
04/03:00am 24.5 29.1 23.8 96 0.5 SW 6 7 3 4 1007.6 1007.5 0.0
04/02:30am 24.3 30.0 23.8 97 0.3 CALM 0 0 0 0 1007.8 - 0.0
04/02:00am 24.2 29.8 23.5 96 0.5 CALM 0 0 0 0 1008.1 - 0.0
04/01:30am 24.6 30.4 23.9 96 0.5 CALM 0 0 0 0 1008.3 - 0.0
04/01:00am 24.6 30.4 23.9 96 0.5 CALM 0 0 0 0 1008.6 - 0.0
04/12:30am 24.5 30.2 23.8 96 0.5 CALM 0 0 0 0 1008.9 - 0.0
04/12:00am 24.7 30.4 23.8 95 0.6 CALM 0 6 0 3 1009.1 1009.0 0.0
 
Date/Time
EST
Temp
°C
App
Temp
°C
Dew
Point
Rel
Hum
%
Delta-T
°C
Wind Press
QNH
hPa
Press
MSL
hPa
Rain
since 9 am
mm
Dir
 
Spd
km/h
Gust
km/h
Spd
kts
Gust
kts
03/11:30pm 25.2 31.2 24.2 94 0.7 CALM 0 0 0 0 1009.2 - 0.0
03/11:00pm 25.7 31.6 24.1 91 1.1 CALM 0 0 0 0 1009.4 - 0.0
03/10:30pm 25.3 31.4 24.4 95 0.6 CALM 0 0 0 0 1009.4 - 0.0
03/10:00pm 25.5 31.4 24.1 92 1.0 CALM 0 0 0 0 1009.2 - 0.0
03/09:30pm 26.5 31.2 24.0 86 1.7 S 6 7 3 4 1008.9 - 0.0
03/09:00pm 26.5 32.3 24.0 86 1.7 CALM 0 0 0 0 1008.7 1008.6 0.0
03/08:30pm 27.7 31.8 23.3 77 3.0 ESE 7 13 4 7 1008.4 - 0.0
03/08:00pm 27.4 32.9 24.0 82 2.3 SE 2 7 1 4 1008.1 - 0.0
03/07:30pm 27.8 33.9 25.0 85 2.0 E 2 6 1 3 1007.6 - 0.0
03/07:00pm 28.3 32.8 23.7 76 3.2 E 6 9 3 5 1007.3 - 0.0
03/06:30pm 29.0 33.0 23.7 73 3.7 E 9 13 5 7 1006.9 - 0.0
03/06:00pm 29.5 32.3 23.0 68 4.5 E 13 19 7 10 1006.5 1006.4 0.0
03/05:30pm 30.1 31.5 22.5 63 5.2 E 19 22 10 12 1006.4 - 0.0
03/05:00pm 30.4 32.0 22.8 64 5.2 ESE 19 24 10 13 1006.4 - 0.0
03/04:30pm 30.4 32.9 23.1 65 5.0 E 15 24 8 13 1006.2 - 0.0
03/04:00pm 30.9 33.4 22.5 61 5.7 E 13 19 7 10 1006.3 - 0.0
03/03:30pm 30.7 32.7 22.3 61 5.7 E 15 26 8 14 1006.5 - 0.0
03/03:00pm 30.7 32.1 21.8 59 6.0 E 17 26 9 14 1006.8 1006.7 0.0
03/02:30pm 30.9 33.7 24.3 68 4.6 E 17 24 9 13 1007.1 - 0.0
03/02:00pm 30.7 33.1 23.6 66 4.9 ENE 17 24 9 13 1007.4 - 0.0
03/01:30pm 31.2 34.9 25.1 70 4.3 E 15 20 8 11 1007.6 - 0.0
03/01:00pm 30.8 33.2 23.7 66 4.9 E 17 26 9 14 1007.9 - 0.0
03/12:30pm 30.5 32.5 22.9 64 5.2 E 17 24 9 13 1008.3 - 0.0
03/12:00pm 30.3 32.5 23.2 65 4.9 E 17 26 9 14 1008.8 1008.7 0.0
03/11:30am 30.3 33.0 23.5 67 4.7 ENE 15 20 8 11 1009.1 - 0.0
03/11:00am 30.6 33.4 24.3 69 4.4 ESE 17 28 9 15 1009.5 - 0.0
03/10:30am 30.3 33.2 24.4 70 4.1 E 17 22 9 12 1009.7 - 0.0
03/10:00am 29.8 33.2 24.0 71 4.0 ESE 13 19 7 10 1009.8 - 0.0
03/09:36am 29.2 32.8 24.3 75 3.4 ESE 13 20 7 11 1009.9 - 0.0
03/09:30am 29.8 34.4 24.7 74 3.6 ESE 9 19 5 10 1009.8 - 0.0
03/09:20am 29.1 35.1 25.5 81 2.5 E 4 11 2 6 1009.8 - 0.0
03/09:13am 28.7 34.3 24.9 80 2.7 NE 4 7 2 4 1009.8 - 0.0
03/09:00am 28.0 34.2 25.2 85 2.0 NW 2 6 1 3 1009.7 1009.6 0.0
03/08:50am 27.5 32.8 25.3 88 1.5 NNW 7 9 4 5 1009.7 - 0.0
03/08:30am 27.4 33.2 25.2 88 1.5 NW 4 7 2 4 1009.7 - 0.0
03/08:00am 26.0 32.5 25.1 95 0.6 CALM 0 0 0 0 1009.4 - 0.0
03/07:30am 24.8 30.8 24.3 97 0.3 CALM 0 0 0 0 1009.0 - 0.0
03/07:00am 24.0 29.7 23.8 99 0.1 CALM 0 0 0 0 1008.6 - 0.0
03/06:30am 23.8 29.0 23.5 98 0.2 N 2 6 1 3 1008.3 - 0.0
03/06:00am 24.0 29.7 23.7 98 0.2 CALM 0 0 0 0 1008.0 1007.9 0.0
03/05:30am 24.2 30.0 23.9 98 0.2 CALM 0 0 0 0 1007.7 - 0.0
03/05:00am 24.4 30.3 24.1 98 0.2 CALM 0 0 0 0 1007.3 - 0.0
03/04:30am 24.5 30.5 24.2 98 0.2 CALM 0 0 0 0 1007.1 - 0.0
03/04:00am 24.4 30.3 24.1 98 0.2 CALM 0 0 0 0 1006.9 - 0.0
03/03:58am 24.4 30.3 24.1 98 0.2 CALM 0 0 0 0 1006.9 - 0.0
03/03:48am 24.3 30.1 24.0 98 0.2 CALM 0 0 0 0 1007.0 - 0.0
03/03:42am 24.2 30.0 23.9 98 0.2 CALM 0 0 0 0 1007.1 - 0.0
03/03:30am 24.2 30.0 23.9 98 0.2 CALM 0 0 0 0 1007.0 - 0.0
03/03:00am 24.5 30.5 24.2 98 0.2 CALM 0 0 0 0 1007.1 1007.0 0.0
03/02:49am 24.3 30.1 24.0 98 0.2 CALM 0 0 0 0 1007.2 - 0.0
03/02:30am 24.5 30.5 24.2 98 0.2 CALM 0 0 0 0 1007.2 - 0.0
03/02:00am 24.5 30.5 24.3 99 0.1 CALM 0 0 0 0 1007.7 - 0.0
03/01:58am 24.4 30.4 24.2 99 0.1 CALM 0 0 0 0 1007.7 - 0.0
03/01:30am 24.2 29.6 23.9 98 0.2 NW 2 7 1 4 1007.9 - 0.0
03/01:00am 24.3 30.0 23.8 97 0.3 CALM 0 0 0 0 1008.1 - 0.0
03/12:30am 24.6 30.5 24.1 97 0.3 CALM 0 0 0 0 1008.4 - 0.0
03/12:00am 24.6 30.5 24.1 97 0.3 CALM 0 0 0 0 1008.6 1008.5 0.0
 
Date/Time
EST
Temp
°C
App
Temp
°C
Dew
Point
Rel
Hum
%
Delta-T
°C
Wind Press
QNH
hPa
Press
MSL
hPa
Rain
since 9 am
mm
Dir
 
Spd
km/h
Gust
km/h
Spd
kts
Gust
kts
02/11:30pm 24.6 30.5 24.1 97 0.3 CALM 0 0 0 0 1008.5 - 0.0
02/11:00pm 24.7 30.7 24.2 97 0.3 CALM 0 0 0 0 1008.3 - 0.0
02/10:30pm 25.1 31.2 24.4 96 0.5 CALM 0 0 0 0 1008.2 - 0.0
02/10:00pm 25.2 31.3 24.5 96 0.5 CALM 0 0 0 0 1008.1 - 0.0
02/09:30pm 25.4 31.5 24.4 94 0.7 CALM 0 0 0 0 1008.1 - 0.0
02/09:00pm 25.5 30.5 24.5 94 0.7 NW 6 7 3 4 1007.8 1007.7 0.0
02/08:30pm 26.1 32.4 24.7 92 1.0 CALM 0 0 0 0 1007.4 - 0.0
02/08:00pm 26.8 32.8 24.3 86 1.7 CALM 0 0 0 0 1007.1 - 0.0
02/07:30pm 27.1 32.0 24.4 85 1.9 NNE 6 9 3 5 1006.6 - 0.0
02/07:00pm 27.6 32.4 24.4 83 2.2 NE 7 9 4 5 1006.5 - 0.0
02/06:30pm 28.4 32.4 23.8 76 3.2 NE 9 15 5 8 1006.2 - 0.0
02/06:00pm 29.2 32.6 23.4 71 4.0 ENE 11 17 6 9 1005.8 1005.7 0.0
02/05:30pm 29.7 33.1 23.4 69 4.3 E 11 19 6 10 1005.6 - 0.0
02/05:00pm 30.1 32.5 23.0 65 4.9 E 15 20 8 11 1005.5 - 0.0

Other Formats:

Comma delimited format used in spreadsheet applications
http://www.bom.gov.au/fwo/IDQ60801/IDQ60801.94186.axf

JavaScript Object Notation format (JSON) in row-major order
http://www.bom.gov.au/fwo/IDQ60801/IDQ60801.94186.json